sensor_id;sensor_type;location;lat;lon;timestamp;P1;durP1;ratioP1;P2;durP2;ratioP2
39772;SDS011;25451;51.960;6.250;2022-12-18T00:00:44;30.48;;;11.05;;
39772;SDS011;25451;51.960;6.250;2022-12-18T00:03:12;28.38;;;10.80;;
39772;SDS011;25451;51.960;6.250;2022-12-18T00:05:37;28.48;;;9.85;;
39772;SDS011;25451;51.960;6.250;2022-12-18T00:08:11;25.90;;;10.52;;
39772;SDS011;25451;51.960;6.250;2022-12-18T00:10:36;27.23;;;10.33;;
39772;SDS011;25451;51.960;6.250;2022-12-18T00:13:01;28.03;;;10.60;;
39772;SDS011;25451;51.960;6.250;2022-12-18T00:15:27;27.17;;;10.97;;
39772;SDS011;25451;51.960;6.250;2022-12-18T00:17:52;29.90;;;10.57;;
39772;SDS011;25451;51.960;6.250;2022-12-18T00:20:17;25.50;;;9.77;;
39772;SDS011;25451;51.960;6.250;2022-12-18T00:22:48;31.90;;;10.63;;
39772;SDS011;25451;51.960;6.250;2022-12-18T00:25:13;28.37;;;9.93;;
39772;SDS011;25451;51.960;6.250;2022-12-18T00:27:39;25.50;;;9.67;;
39772;SDS011;25451;51.960;6.250;2022-12-18T00:30:04;27.00;;;10.23;;
39772;SDS011;25451;51.960;6.250;2022-12-18T00:32:30;23.35;;;9.93;;
39772;SDS011;25451;51.960;6.250;2022-12-18T00:34:55;24.90;;;10.73;;
39772;SDS011;25451;51.960;6.250;2022-12-18T00:37:20;28.20;;;10.60;;
39772;SDS011;25451;51.960;6.250;2022-12-18T00:39:47;20.53;;;9.33;;
39772;SDS011;25451;51.960;6.250;2022-12-18T00:42:13;25.77;;;10.27;;
39772;SDS011;25451;51.960;6.250;2022-12-18T00:44:56;21.67;;;9.43;;
39772;SDS011;25451;51.960;6.250;2022-12-18T00:47:22;26.27;;;10.27;;
39772;SDS011;25451;51.960;6.250;2022-12-18T00:49:47;25.42;;;8.98;;
39772;SDS011;25451;51.960;6.250;2022-12-18T00:52:12;22.00;;;9.27;;
39772;SDS011;25451;51.960;6.250;2022-12-18T00:54:37;24.50;;;9.57;;
39772;SDS011;25451;51.960;6.250;2022-12-18T00:57:03;22.47;;;8.67;;
39772;SDS011;25451;51.960;6.250;2022-12-18T00:59:28;24.30;;;9.40;;
39772;SDS011;25451;51.960;6.250;2022-12-18T01:01:55;21.30;;;8.80;;
39772;SDS011;25451;51.960;6.250;2022-12-18T01:04:20;24.95;;;9.15;;
39772;SDS011;25451;51.960;6.250;2022-12-18T01:06:45;28.00;;;10.60;;
39772;SDS011;25451;51.960;6.250;2022-12-18T01:09:11;23.97;;;10.20;;
39772;SDS011;25451;51.960;6.250;2022-12-18T01:11:36;21.60;;;8.90;;
39772;SDS011;25451;51.960;6.250;2022-12-18T01:14:02;22.53;;;9.10;;
39772;SDS011;25451;51.960;6.250;2022-12-18T01:16:27;27.88;;;10.05;;
39772;SDS011;25451;51.960;6.250;2022-12-18T01:18:53;30.97;;;9.70;;
39772;SDS011;25451;51.960;6.250;2022-12-18T01:21:19;23.27;;;9.70;;
39772;SDS011;25451;51.960;6.250;2022-12-18T01:23:45;24.45;;;9.25;;
39772;SDS011;25451;51.960;6.250;2022-12-18T01:26:13;25.42;;;10.75;;
39772;SDS011;25451;51.960;6.250;2022-12-18T01:28:40;22.38;;;9.55;;
39772;SDS011;25451;51.960;6.250;2022-12-18T01:31:16;23.90;;;9.70;;
39772;SDS011;25451;51.960;6.250;2022-12-18T01:33:42;18.53;;;8.37;;
39772;SDS011;25451;51.960;6.250;2022-12-18T01:36:11;25.92;;;9.75;;
39772;SDS011;25451;51.960;6.250;2022-12-18T01:38:40;24.35;;;10.25;;
39772;SDS011;25451;51.960;6.250;2022-12-18T01:41:05;23.13;;;9.17;;
39772;SDS011;25451;51.960;6.250;2022-12-18T01:46:06;24.40;;;10.13;;
39772;SDS011;25451;51.960;6.250;2022-12-18T01:48:31;20.33;;;9.40;;
39772;SDS011;25451;51.960;6.250;2022-12-18T01:50:57;22.90;;;9.20;;
39772;SDS011;25451;51.960;6.250;2022-12-18T01:53:22;23.87;;;9.90;;
39772;SDS011;25451;51.960;6.250;2022-12-18T01:55:53;22.73;;;9.32;;
39772;SDS011;25451;51.960;6.250;2022-12-18T01:58:22;22.63;;;8.70;;
39772;SDS011;25451;51.960;6.250;2022-12-18T02:00:53;18.75;;;8.90;;
39772;SDS011;25451;51.960;6.250;2022-12-18T02:03:19;24.45;;;8.65;;
39772;SDS011;25451;51.960;6.250;2022-12-18T02:11:21;18.80;;;8.65;;
39772;SDS011;25451;51.960;6.250;2022-12-18T02:17:01;21.52;;;8.57;;
39772;SDS011;25451;51.960;6.250;2022-12-18T02:19:44;21.65;;;9.38;;
39772;SDS011;25451;51.960;6.250;2022-12-18T02:27:41;17.67;;;7.68;;
39772;SDS011;25451;51.960;6.250;2022-12-18T02:30:10;18.35;;;8.50;;
39772;SDS011;25451;51.960;6.250;2022-12-18T02:32:39;18.60;;;7.97;;
39772;SDS011;25451;51.960;6.250;2022-12-18T02:35:12;19.77;;;8.83;;
39772;SDS011;25451;51.960;6.250;2022-12-18T02:37:41;17.73;;;8.90;;
39772;SDS011;25451;51.960;6.250;2022-12-18T02:40:08;17.92;;;8.55;;
39772;SDS011;25451;51.960;6.250;2022-12-18T02:42:36;16.02;;;7.80;;
39772;SDS011;25451;51.960;6.250;2022-12-18T02:45:01;20.60;;;8.87;;
39772;SDS011;25451;51.960;6.250;2022-12-18T02:47:31;19.87;;;8.00;;
39772;SDS011;25451;51.960;6.250;2022-12-18T02:55:37;15.23;;;7.53;;
39772;SDS011;25451;51.960;6.250;2022-12-18T03:01:09;16.92;;;7.90;;
39772;SDS011;25451;51.960;6.250;2022-12-18T03:03:43;17.98;;;7.40;;
39772;SDS011;25451;51.960;6.250;2022-12-18T03:06:23;23.23;;;8.40;;
39772;SDS011;25451;51.960;6.250;2022-12-18T03:08:56;19.58;;;7.50;;
39772;SDS011;25451;51.960;6.250;2022-12-18T03:11:24;15.50;;;7.57;;
39772;SDS011;25451;51.960;6.250;2022-12-18T03:14:11;16.90;;;7.50;;
39772;SDS011;25451;51.960;6.250;2022-12-18T03:16:40;19.05;;;8.45;;
39772;SDS011;25451;51.960;6.250;2022-12-18T03:19:08;19.27;;;7.32;;
39772;SDS011;25451;51.960;6.250;2022-12-18T03:21:41;19.45;;;7.80;;
39772;SDS011;25451;51.960;6.250;2022-12-18T03:24:10;19.20;;;7.97;;
39772;SDS011;25451;51.960;6.250;2022-12-18T03:26:37;19.27;;;7.93;;
39772;SDS011;25451;51.960;6.250;2022-12-18T03:32:06;15.88;;;6.72;;
39772;SDS011;25451;51.960;6.250;2022-12-18T03:34:37;20.15;;;7.43;;
39772;SDS011;25451;51.960;6.250;2022-12-18T03:37:05;15.43;;;6.77;;
39772;SDS011;25451;51.960;6.250;2022-12-18T03:39:31;19.15;;;7.40;;
39772;SDS011;25451;51.960;6.250;2022-12-18T03:42:17;21.90;;;7.80;;
39772;SDS011;25451;51.960;6.250;2022-12-18T03:55:16;18.35;;;7.80;;
39772;SDS011;25451;51.960;6.250;2022-12-18T03:57:44;18.73;;;7.00;;
39772;SDS011;25451;51.960;6.250;2022-12-18T04:00:13;18.70;;;7.80;;
39772;SDS011;25451;51.960;6.250;2022-12-18T04:02:43;18.08;;;7.72;;
39772;SDS011;25451;51.960;6.250;2022-12-18T04:05:11;10.88;;;6.13;;
39772;SDS011;25451;51.960;6.250;2022-12-18T04:07:38;14.73;;;6.43;;
39772;SDS011;25451;51.960;6.250;2022-12-18T04:10:03;16.57;;;7.23;;
39772;SDS011;25451;51.960;6.250;2022-12-18T04:12:31;17.60;;;7.88;;
39772;SDS011;25451;51.960;6.250;2022-12-18T04:14:57;12.43;;;6.90;;
39772;SDS011;25451;51.960;6.250;2022-12-18T04:17:22;14.40;;;6.17;;
39772;SDS011;25451;51.960;6.250;2022-12-18T04:19:47;13.80;;;6.50;;
39772;SDS011;25451;51.960;6.250;2022-12-18T04:22:13;17.17;;;7.47;;
39772;SDS011;25451;51.960;6.250;2022-12-18T04:24:38;13.25;;;6.32;;
39772;SDS011;25451;51.960;6.250;2022-12-18T04:27:03;12.23;;;5.53;;
39772;SDS011;25451;51.960;6.250;2022-12-18T04:29:29;17.73;;;7.13;;
39772;SDS011;25451;51.960;6.250;2022-12-18T04:31:54;18.20;;;7.53;;
39772;SDS011;25451;51.960;6.250;2022-12-18T04:34:20;16.70;;;7.27;;
39772;SDS011;25451;51.960;6.250;2022-12-18T04:36:45;14.88;;;6.43;;
39772;SDS011;25451;51.960;6.250;2022-12-18T04:39:11;15.10;;;6.77;;
39772;SDS011;25451;51.960;6.250;2022-12-18T04:41:36;13.60;;;6.57;;
39772;SDS011;25451;51.960;6.250;2022-12-18T04:44:01;14.97;;;6.27;;
39772;SDS011;25451;51.960;6.250;2022-12-18T04:46:27;15.60;;;7.17;;
39772;SDS011;25451;51.960;6.250;2022-12-18T04:48:52;16.20;;;6.53;;
39772;SDS011;25451;51.960;6.250;2022-12-18T04:51:17;14.60;;;6.83;;
39772;SDS011;25451;51.960;6.250;2022-12-18T04:53:43;19.33;;;6.30;;
39772;SDS011;25451;51.960;6.250;2022-12-18T04:56:12;15.00;;;6.27;;
39772;SDS011;25451;51.960;6.250;2022-12-18T04:58:40;11.68;;;5.43;;
39772;SDS011;25451;51.960;6.250;2022-12-18T05:01:06;11.32;;;5.57;;
39772;SDS011;25451;51.960;6.250;2022-12-18T05:03:32;17.27;;;6.32;;
39772;SDS011;25451;51.960;6.250;2022-12-18T05:05:58;10.63;;;5.23;;
39772;SDS011;25451;51.960;6.250;2022-12-18T05:08:24;12.48;;;5.80;;
39772;SDS011;25451;51.960;6.250;2022-12-18T05:10:57;17.50;;;6.68;;
39772;SDS011;25451;51.960;6.250;2022-12-18T05:13:44;12.67;;;5.23;;
39772;SDS011;25451;51.960;6.250;2022-12-18T05:16:10;12.27;;;5.70;;
39772;SDS011;25451;51.960;6.250;2022-12-18T05:18:36;15.18;;;5.95;;
39772;SDS011;25451;51.960;6.250;2022-12-18T05:21:02;11.55;;;5.68;;
39772;SDS011;25451;51.960;6.250;2022-12-18T05:23:27;11.48;;;4.85;;
39772;SDS011;25451;51.960;6.250;2022-12-18T05:25:53;11.27;;;5.30;;
39772;SDS011;25451;51.960;6.250;2022-12-18T05:28:20;15.45;;;5.70;;
39772;SDS011;25451;51.960;6.250;2022-12-18T05:30:48;11.00;;;5.07;;
39772;SDS011;25451;51.960;6.250;2022-12-18T05:33:15;13.50;;;6.03;;
39772;SDS011;25451;51.960;6.250;2022-12-18T05:35:41;12.05;;;6.00;;
39772;SDS011;25451;51.960;6.250;2022-12-18T05:38:06;13.37;;;6.00;;
39772;SDS011;25451;51.960;6.250;2022-12-18T05:40:31;13.40;;;6.67;;
39772;SDS011;25451;51.960;6.250;2022-12-18T05:42:56;11.27;;;5.47;;
39772;SDS011;25451;51.960;6.250;2022-12-18T05:45:22;12.33;;;5.77;;
39772;SDS011;25451;51.960;6.250;2022-12-18T05:47:47;15.53;;;6.50;;
39772;SDS011;25451;51.960;6.250;2022-12-18T05:50:12;14.40;;;5.77;;
39772;SDS011;25451;51.960;6.250;2022-12-18T05:52:38;15.97;;;5.63;;
39772;SDS011;25451;51.960;6.250;2022-12-18T05:55:03;14.67;;;7.07;;
39772;SDS011;25451;51.960;6.250;2022-12-18T05:57:29;13.93;;;6.05;;
39772;SDS011;25451;51.960;6.250;2022-12-18T05:59:54;11.37;;;6.00;;
39772;SDS011;25451;51.960;6.250;2022-12-18T06:02:19;12.77;;;5.47;;
39772;SDS011;25451;51.960;6.250;2022-12-18T06:04:45;14.63;;;5.63;;
39772;SDS011;25451;51.960;6.250;2022-12-18T06:07:11;12.13;;;5.03;;
39772;SDS011;25451;51.960;6.250;2022-12-18T06:09:36;15.77;;;6.73;;
39772;SDS011;25451;51.960;6.250;2022-12-18T06:12:02;12.17;;;5.57;;
39772;SDS011;25451;51.960;6.250;2022-12-18T06:14:27;19.73;;;6.07;;
39772;SDS011;25451;51.960;6.250;2022-12-18T06:16:52;13.60;;;6.18;;
39772;SDS011;25451;51.960;6.250;2022-12-18T06:19:18;12.52;;;5.43;;
39772;SDS011;25451;51.960;6.250;2022-12-18T06:21:43;9.57;;;4.77;;
39772;SDS011;25451;51.960;6.250;2022-12-18T06:24:08;14.23;;;6.03;;
39772;SDS011;25451;51.960;6.250;2022-12-18T06:26:34;13.90;;;6.27;;
39772;SDS011;25451;51.960;6.250;2022-12-18T06:29:02;10.88;;;5.18;;
39772;SDS011;25451;51.960;6.250;2022-12-18T06:31:28;16.73;;;6.23;;
39772;SDS011;25451;51.960;6.250;2022-12-18T06:33:53;12.07;;;5.73;;
39772;SDS011;25451;51.960;6.250;2022-12-18T06:36:18;11.43;;;5.33;;
39772;SDS011;25451;51.960;6.250;2022-12-18T06:38:45;15.10;;;6.57;;
39772;SDS011;25451;51.960;6.250;2022-12-18T06:41:12;13.02;;;6.60;;
39772;SDS011;25451;51.960;6.250;2022-12-18T06:43:42;11.93;;;5.82;;
39772;SDS011;25451;51.960;6.250;2022-12-18T06:46:08;14.17;;;6.30;;
39772;SDS011;25451;51.960;6.250;2022-12-18T06:48:33;12.13;;;5.20;;
39772;SDS011;25451;51.960;6.250;2022-12-18T06:50:59;15.03;;;6.03;;
39772;SDS011;25451;51.960;6.250;2022-12-18T06:53:24;12.73;;;6.00;;
39772;SDS011;25451;51.960;6.250;2022-12-18T06:55:50;12.93;;;5.47;;
39772;SDS011;25451;51.960;6.250;2022-12-18T06:58:16;14.20;;;5.87;;
39772;SDS011;25451;51.960;6.250;2022-12-18T07:00:42;13.57;;;6.35;;
39772;SDS011;25451;51.960;6.250;2022-12-18T07:03:07;11.80;;;5.57;;
39772;SDS011;25451;51.960;6.250;2022-12-18T07:05:32;14.00;;;6.13;;
39772;SDS011;25451;51.960;6.250;2022-12-18T07:07:59;13.70;;;6.10;;
39772;SDS011;25451;51.960;6.250;2022-12-18T07:10:24;13.13;;;4.90;;
39772;SDS011;25451;51.960;6.250;2022-12-18T07:12:50;13.60;;;5.57;;
39772;SDS011;25451;51.960;6.250;2022-12-18T07:15:15;10.60;;;5.20;;
39772;SDS011;25451;51.960;6.250;2022-12-18T07:17:40;10.82;;;5.13;;
39772;SDS011;25451;51.960;6.250;2022-12-18T07:20:06;11.70;;;5.57;;
39772;SDS011;25451;51.960;6.250;2022-12-18T07:22:31;11.67;;;5.53;;
39772;SDS011;25451;51.960;6.250;2022-12-18T07:24:57;9.97;;;4.20;;
39772;SDS011;25451;51.960;6.250;2022-12-18T07:27:22;13.57;;;5.63;;
39772;SDS011;25451;51.960;6.250;2022-12-18T07:29:48;19.35;;;6.13;;
39772;SDS011;25451;51.960;6.250;2022-12-18T07:32:13;13.57;;;5.73;;
39772;SDS011;25451;51.960;6.250;2022-12-18T07:34:39;12.40;;;5.07;;
39772;SDS011;25451;51.960;6.250;2022-12-18T07:37:04;11.50;;;4.63;;
39772;SDS011;25451;51.960;6.250;2022-12-18T07:39:30;11.18;;;5.55;;
39772;SDS011;25451;51.960;6.250;2022-12-18T07:41:55;15.07;;;5.13;;
39772;SDS011;25451;51.960;6.250;2022-12-18T07:44:39;11.55;;;5.68;;
39772;SDS011;25451;51.960;6.250;2022-12-18T07:47:05;13.07;;;5.70;;
39772;SDS011;25451;51.960;6.250;2022-12-18T07:49:30;13.53;;;5.50;;
39772;SDS011;25451;51.960;6.250;2022-12-18T07:51:55;10.63;;;5.13;;
39772;SDS011;25451;51.960;6.250;2022-12-18T07:54:22;10.48;;;4.88;;
39772;SDS011;25451;51.960;6.250;2022-12-18T07:56:48;11.77;;;4.85;;
39772;SDS011;25451;51.960;6.250;2022-12-18T07:59:13;13.33;;;5.60;;
39772;SDS011;25451;51.960;6.250;2022-12-18T08:01:38;11.97;;;5.87;;
39772;SDS011;25451;51.960;6.250;2022-12-18T08:04:04;16.17;;;5.73;;
39772;SDS011;25451;51.960;6.250;2022-12-18T08:06:29;11.70;;;6.23;;
39772;SDS011;25451;51.960;6.250;2022-12-18T08:08:55;11.63;;;5.10;;
39772;SDS011;25451;51.960;6.250;2022-12-18T08:11:21;11.57;;;5.47;;
39772;SDS011;25451;51.960;6.250;2022-12-18T08:13:47;14.25;;;5.60;;
39772;SDS011;25451;51.960;6.250;2022-12-18T08:16:13;10.03;;;4.93;;
39772;SDS011;25451;51.960;6.250;2022-12-18T08:18:38;11.50;;;4.70;;
39772;SDS011;25451;51.960;6.250;2022-12-18T08:21:07;12.10;;;5.30;;
39772;SDS011;25451;51.960;6.250;2022-12-18T08:23:38;9.45;;;4.18;;
39772;SDS011;25451;51.960;6.250;2022-12-18T08:26:04;11.23;;;4.67;;
39772;SDS011;25451;51.960;6.250;2022-12-18T08:28:30;9.25;;;4.68;;
39772;SDS011;25451;51.960;6.250;2022-12-18T08:30:56;10.23;;;4.73;;
39772;SDS011;25451;51.960;6.250;2022-12-18T08:33:21;9.18;;;4.68;;
39772;SDS011;25451;51.960;6.250;2022-12-18T08:35:46;9.53;;;4.67;;
39772;SDS011;25451;51.960;6.250;2022-12-18T08:38:12;12.10;;;5.17;;
39772;SDS011;25451;51.960;6.250;2022-12-18T08:40:37;9.87;;;4.33;;
39772;SDS011;25451;51.960;6.250;2022-12-18T08:43:03;9.70;;;4.53;;
39772;SDS011;25451;51.960;6.250;2022-12-18T08:45:46;7.97;;;4.47;;
39772;SDS011;25451;51.960;6.250;2022-12-18T08:48:12;9.17;;;4.50;;
39772;SDS011;25451;51.960;6.250;2022-12-18T08:50:37;11.77;;;4.67;;
39772;SDS011;25451;51.960;6.250;2022-12-18T08:53:02;12.17;;;5.00;;
39772;SDS011;25451;51.960;6.250;2022-12-18T08:55:28;9.93;;;4.32;;
39772;SDS011;25451;51.960;6.250;2022-12-18T08:57:53;9.30;;;4.50;;
39772;SDS011;25451;51.960;6.250;2022-12-18T09:00:19;9.83;;;4.27;;
39772;SDS011;25451;51.960;6.250;2022-12-18T09:02:44;8.32;;;4.22;;
39772;SDS011;25451;51.960;6.250;2022-12-18T09:05:10;8.77;;;4.10;;
39772;SDS011;25451;51.960;6.250;2022-12-18T09:07:35;9.53;;;5.00;;
39772;SDS011;25451;51.960;6.250;2022-12-18T09:10:01;8.07;;;4.07;;
39772;SDS011;25451;51.960;6.250;2022-12-18T09:12:26;9.50;;;4.40;;
39772;SDS011;25451;51.960;6.250;2022-12-18T09:14:51;10.43;;;4.60;;
39772;SDS011;25451;51.960;6.250;2022-12-18T09:17:17;11.37;;;5.07;;
39772;SDS011;25451;51.960;6.250;2022-12-18T09:19:42;8.27;;;4.63;;
39772;SDS011;25451;51.960;6.250;2022-12-18T09:22:08;10.65;;;4.85;;
39772;SDS011;25451;51.960;6.250;2022-12-18T09:24:34;11.43;;;4.72;;
39772;SDS011;25451;51.960;6.250;2022-12-18T09:27:00;9.87;;;4.27;;
39772;SDS011;25451;51.960;6.250;2022-12-18T09:29:25;9.17;;;4.93;;
39772;SDS011;25451;51.960;6.250;2022-12-18T09:31:50;9.20;;;3.95;;
39772;SDS011;25451;51.960;6.250;2022-12-18T09:34:16;9.23;;;4.13;;
39772;SDS011;25451;51.960;6.250;2022-12-18T09:36:41;9.53;;;4.27;;
39772;SDS011;25451;51.960;6.250;2022-12-18T09:39:07;12.67;;;4.33;;
39772;SDS011;25451;51.960;6.250;2022-12-18T09:46:43;9.38;;;4.60;;
39772;SDS011;25451;51.960;6.250;2022-12-18T09:49:13;10.35;;;4.55;;
39772;SDS011;25451;51.960;6.250;2022-12-18T09:51:53;9.20;;;4.10;;
39772;SDS011;25451;51.960;6.250;2022-12-18T09:54:38;8.13;;;3.70;;
39772;SDS011;25451;51.960;6.250;2022-12-18T09:57:04;8.65;;;3.55;;
39772;SDS011;25451;51.960;6.250;2022-12-18T09:59:37;9.20;;;3.97;;
39772;SDS011;25451;51.960;6.250;2022-12-18T10:02:18;8.43;;;4.10;;
39772;SDS011;25451;51.960;6.250;2022-12-18T10:04:48;9.07;;;4.28;;
39772;SDS011;25451;51.960;6.250;2022-12-18T10:12:58;9.60;;;4.03;;
39772;SDS011;25451;51.960;6.250;2022-12-18T10:15:30;8.57;;;3.90;;
39772;SDS011;25451;51.960;6.250;2022-12-18T10:18:22;11.20;;;4.20;;
39772;SDS011;25451;51.960;6.250;2022-12-18T10:20:52;6.93;;;3.72;;
39772;SDS011;25451;51.960;6.250;2022-12-18T10:26:12;6.07;;;3.33;;
39772;SDS011;25451;51.960;6.250;2022-12-18T10:28:38;8.03;;;4.23;;
39772;SDS011;25451;51.960;6.250;2022-12-18T10:31:05;10.47;;;4.57;;
39772;SDS011;25451;51.960;6.250;2022-12-18T10:33:32;9.20;;;4.53;;
39772;SDS011;25451;51.960;6.250;2022-12-18T10:35:59;7.72;;;4.32;;
39772;SDS011;25451;51.960;6.250;2022-12-18T10:38:28;10.77;;;4.63;;
39772;SDS011;25451;51.960;6.250;2022-12-18T10:43:25;8.77;;;3.97;;
39772;SDS011;25451;51.960;6.250;2022-12-18T10:46:24;9.90;;;4.30;;
39772;SDS011;25451;51.960;6.250;2022-12-18T10:51:23;10.85;;;4.55;;
39772;SDS011;25451;51.960;6.250;2022-12-18T10:53:51;10.32;;;4.22;;
39772;SDS011;25451;51.960;6.250;2022-12-18T10:56:28;9.73;;;4.17;;
39772;SDS011;25451;51.960;6.250;2022-12-18T10:59:03;7.47;;;3.92;;
39772;SDS011;25451;51.960;6.250;2022-12-18T11:01:44;9.95;;;4.65;;
39772;SDS011;25451;51.960;6.250;2022-12-18T11:04:20;10.35;;;4.63;;
39772;SDS011;25451;51.960;6.250;2022-12-18T11:09:29;10.17;;;4.37;;
39772;SDS011;25451;51.960;6.250;2022-12-18T11:12:08;10.63;;;4.22;;
39772;SDS011;25451;51.960;6.250;2022-12-18T11:17:21;9.68;;;4.45;;
39772;SDS011;25451;51.960;6.250;2022-12-18T11:19:55;8.18;;;3.72;;
39772;SDS011;25451;51.960;6.250;2022-12-18T11:22:29;11.10;;;4.47;;
39772;SDS011;25451;51.960;6.250;2022-12-18T11:25:06;10.30;;;4.72;;
39772;SDS011;25451;51.960;6.250;2022-12-18T11:28:27;11.25;;;4.00;;
39772;SDS011;25451;51.960;6.250;2022-12-18T11:31:08;8.20;;;3.85;;
39772;SDS011;25451;51.960;6.250;2022-12-18T11:33:34;8.50;;;4.15;;
39772;SDS011;25451;51.960;6.250;2022-12-18T11:36:01;11.53;;;4.60;;
39772;SDS011;25451;51.960;6.250;2022-12-18T11:38:35;10.30;;;4.38;;
39772;SDS011;25451;51.960;6.250;2022-12-18T11:43:50;12.63;;;4.05;;
39772;SDS011;25451;51.960;6.250;2022-12-18T11:46:23;9.50;;;4.28;;
39772;SDS011;25451;51.960;6.250;2022-12-18T11:49:01;8.63;;;4.13;;
39772;SDS011;25451;51.960;6.250;2022-12-18T11:51:39;8.88;;;4.18;;
39772;SDS011;25451;51.960;6.250;2022-12-18T11:54:13;10.02;;;4.38;;
39772;SDS011;25451;51.960;6.250;2022-12-18T11:57:01;9.75;;;4.45;;
39772;SDS011;25451;51.960;6.250;2022-12-18T12:05:46;10.40;;;4.53;;
39772;SDS011;25451;51.960;6.250;2022-12-18T12:19:30;11.27;;;4.60;;
39772;SDS011;25451;51.960;6.250;2022-12-18T12:25:21;10.52;;;4.47;;
39772;SDS011;25451;51.960;6.250;2022-12-18T12:34:00;10.02;;;4.78;;
39772;SDS011;25451;51.960;6.250;2022-12-18T12:39:18;8.15;;;3.63;;
39772;SDS011;25451;51.960;6.250;2022-12-18T12:41:50;8.73;;;4.18;;
39772;SDS011;25451;51.960;6.250;2022-12-18T12:44:42;8.20;;;3.67;;
39772;SDS011;25451;51.960;6.250;2022-12-18T12:47:29;8.00;;;3.65;;
39772;SDS011;25451;51.960;6.250;2022-12-18T12:49:58;9.13;;;4.40;;
39772;SDS011;25451;51.960;6.250;2022-12-18T12:52:43;9.05;;;4.18;;
39772;SDS011;25451;51.960;6.250;2022-12-18T12:55:33;8.88;;;3.90;;
39772;SDS011;25451;51.960;6.250;2022-12-18T13:00:24;9.00;;;4.53;;
39772;SDS011;25451;51.960;6.250;2022-12-18T13:06:00;7.55;;;4.32;;
39772;SDS011;25451;51.960;6.250;2022-12-18T13:08:34;11.35;;;4.65;;
39772;SDS011;25451;51.960;6.250;2022-12-18T13:11:31;9.60;;;4.78;;
39772;SDS011;25451;51.960;6.250;2022-12-18T13:14:20;11.23;;;4.60;;
39772;SDS011;25451;51.960;6.250;2022-12-18T13:19:50;8.80;;;4.07;;
39772;SDS011;25451;51.960;6.250;2022-12-18T13:22:27;10.93;;;5.30;;
39772;SDS011;25451;51.960;6.250;2022-12-18T13:24:56;12.85;;;4.93;;
39772;SDS011;25451;51.960;6.250;2022-12-18T13:27:44;11.07;;;5.33;;
39772;SDS011;25451;51.960;6.250;2022-12-18T13:33:24;9.47;;;4.37;;
39772;SDS011;25451;51.960;6.250;2022-12-18T13:35:52;9.60;;;4.90;;
39772;SDS011;25451;51.960;6.250;2022-12-18T13:41:41;10.45;;;4.65;;
39772;SDS011;25451;51.960;6.250;2022-12-18T13:43:42;12.05;;;5.07;;
39772;SDS011;25451;51.960;6.250;2022-12-18T13:46:19;9.20;;;4.57;;
39772;SDS011;25451;51.960;6.250;2022-12-18T13:49:03;9.90;;;4.63;;
39772;SDS011;25451;51.960;6.250;2022-12-18T13:51:47;10.82;;;4.43;;
39772;SDS011;25451;51.960;6.250;2022-12-18T13:56:59;12.43;;;4.78;;
39772;SDS011;25451;51.960;6.250;2022-12-18T13:59:35;9.00;;;4.70;;
39772;SDS011;25451;51.960;6.250;2022-12-18T14:04:36;18.15;;;5.75;;
39772;SDS011;25451;51.960;6.250;2022-12-18T14:07:03;15.57;;;5.30;;
39772;SDS011;25451;51.960;6.250;2022-12-18T14:09:35;10.23;;;5.00;;
39772;SDS011;25451;51.960;6.250;2022-12-18T14:12:02;9.98;;;4.68;;
39772;SDS011;25451;51.960;6.250;2022-12-18T14:14:47;12.03;;;5.30;;
39772;SDS011;25451;51.960;6.250;2022-12-18T14:17:15;12.10;;;5.65;;
39772;SDS011;25451;51.960;6.250;2022-12-18T14:19:46;12.02;;;6.32;;
39772;SDS011;25451;51.960;6.250;2022-12-18T14:22:15;10.35;;;5.40;;
39772;SDS011;25451;51.960;6.250;2022-12-18T14:24:43;9.50;;;4.43;;
39772;SDS011;25451;51.960;6.250;2022-12-18T14:27:13;10.87;;;5.13;;
39772;SDS011;25451;51.960;6.250;2022-12-18T14:29:46;9.30;;;5.15;;
39772;SDS011;25451;51.960;6.250;2022-12-18T14:32:14;11.80;;;5.15;;
39772;SDS011;25451;51.960;6.250;2022-12-18T14:34:44;10.23;;;5.43;;
39772;SDS011;25451;51.960;6.250;2022-12-18T14:37:11;9.03;;;4.33;;
39772;SDS011;25451;51.960;6.250;2022-12-18T14:39:38;12.65;;;5.25;;
39772;SDS011;25451;51.960;6.250;2022-12-18T14:42:03;10.45;;;4.68;;
39772;SDS011;25451;51.960;6.250;2022-12-18T14:44:29;10.33;;;4.50;;
39772;SDS011;25451;51.960;6.250;2022-12-18T14:46:54;11.23;;;5.60;;
39772;SDS011;25451;51.960;6.250;2022-12-18T14:49:30;12.10;;;5.65;;
39772;SDS011;25451;51.960;6.250;2022-12-18T14:52:04;11.60;;;4.87;;
39772;SDS011;25451;51.960;6.250;2022-12-18T14:54:31;11.38;;;5.35;;
39772;SDS011;25451;51.960;6.250;2022-12-18T14:57:22;11.80;;;5.57;;
39772;SDS011;25451;51.960;6.250;2022-12-18T14:59:47;14.48;;;5.90;;
39772;SDS011;25451;51.960;6.250;2022-12-18T15:02:25;12.03;;;5.23;;
39772;SDS011;25451;51.960;6.250;2022-12-18T15:05:00;10.25;;;5.07;;
39772;SDS011;25451;51.960;6.250;2022-12-18T15:07:39;12.65;;;5.80;;
39772;SDS011;25451;51.960;6.250;2022-12-18T15:12:39;12.55;;;5.20;;
39772;SDS011;25451;51.960;6.250;2022-12-18T15:20:33;13.70;;;6.10;;
39772;SDS011;25451;51.960;6.250;2022-12-18T15:23:18;10.85;;;5.47;;
39772;SDS011;25451;51.960;6.250;2022-12-18T15:25:47;11.97;;;5.53;;
39772;SDS011;25451;51.960;6.250;2022-12-18T15:28:31;14.48;;;6.22;;
39772;SDS011;25451;51.960;6.250;2022-12-18T15:33:31;11.35;;;5.72;;
39772;SDS011;25451;51.960;6.250;2022-12-18T15:36:01;11.57;;;5.07;;
39772;SDS011;25451;51.960;6.250;2022-12-18T15:38:37;12.27;;;5.63;;
39772;SDS011;25451;51.960;6.250;2022-12-18T15:41:03;11.20;;;5.38;;
39772;SDS011;25451;51.960;6.250;2022-12-18T15:43:37;12.80;;;5.57;;
39772;SDS011;25451;51.960;6.250;2022-12-18T15:46:04;12.52;;;5.55;;
39772;SDS011;25451;51.960;6.250;2022-12-18T15:54:24;13.23;;;5.53;;
39772;SDS011;25451;51.960;6.250;2022-12-18T15:57:11;11.48;;;5.00;;
39772;SDS011;25451;51.960;6.250;2022-12-18T15:59:52;13.30;;;5.53;;
39772;SDS011;25451;51.960;6.250;2022-12-18T16:02:20;13.83;;;5.30;;
39772;SDS011;25451;51.960;6.250;2022-12-18T16:04:47;11.63;;;5.03;;
39772;SDS011;25451;51.960;6.250;2022-12-18T16:07:13;15.80;;;6.13;;
39772;SDS011;25451;51.960;6.250;2022-12-18T16:09:38;13.60;;;5.93;;
39772;SDS011;25451;51.960;6.250;2022-12-18T16:12:04;11.80;;;6.10;;
39772;SDS011;25451;51.960;6.250;2022-12-18T16:14:39;14.30;;;6.43;;
39772;SDS011;25451;51.960;6.250;2022-12-18T16:17:05;15.23;;;6.43;;
39772;SDS011;25451;51.960;6.250;2022-12-18T16:19:33;15.52;;;6.70;;
39772;SDS011;25451;51.960;6.250;2022-12-18T16:21:59;13.83;;;6.27;;
39772;SDS011;25451;51.960;6.250;2022-12-18T16:24:27;19.10;;;6.80;;
39772;SDS011;25451;51.960;6.250;2022-12-18T16:26:56;15.98;;;6.60;;
39772;SDS011;25451;51.960;6.250;2022-12-18T16:29:24;15.52;;;7.28;;
39772;SDS011;25451;51.960;6.250;2022-12-18T16:31:52;15.33;;;6.77;;
39772;SDS011;25451;51.960;6.250;2022-12-18T16:34:19;17.52;;;7.35;;
39772;SDS011;25451;51.960;6.250;2022-12-18T16:36:48;16.83;;;7.30;;
39772;SDS011;25451;51.960;6.250;2022-12-18T16:39:15;17.05;;;7.75;;
39772;SDS011;25451;51.960;6.250;2022-12-18T16:41:40;17.60;;;7.00;;
39772;SDS011;25451;51.960;6.250;2022-12-18T16:44:05;16.33;;;6.63;;
39772;SDS011;25451;51.960;6.250;2022-12-18T16:46:31;13.57;;;6.43;;
39772;SDS011;25451;51.960;6.250;2022-12-18T16:48:57;19.70;;;7.30;;
39772;SDS011;25451;51.960;6.250;2022-12-18T16:51:23;16.57;;;6.77;;
39772;SDS011;25451;51.960;6.250;2022-12-18T16:53:49;17.35;;;7.45;;
39772;SDS011;25451;51.960;6.250;2022-12-18T16:56:14;13.67;;;5.97;;
39772;SDS011;25451;51.960;6.250;2022-12-18T16:58:39;18.67;;;7.77;;